Airport View

Enter AWOS ICAO identifier for current METAR.

ex. KFNL

KSRB 011215Z AUTO 32003KT 9SM CLR 09/09 A3004 RMK A01

1 Oct 2020 12:25

Frequency: 128.25

Phone: 931-738-3111

Other Area AWOS: KCSV - K8A3 - KRNC - KM54

TAF KCSV 011133Z 0112/0212 23006KT P6SM BKN040 FM011500 32008G16KT P6SM SKC FM020300 34005KT P6SM SKC